Latest Weather Observations for Bellambi

IDN60801

Issued at 11:35 pm EST Saturday 20 September 2014 (issued every 30 minutes, with the page automatically refreshed every 10 minutes)

About weather observations | Map of weather stations | Latest weather observations for NSW | Other Formats
Station Details ID: 068228 Name: BELLAMBI AWS Lat: -34.37 Lon: 150.93 Height: 10.0 m
Data from the previous 72 hours. | See also: Recent months at Bellambi
Date/Time
EST
Temp
°C
App
Temp
°C
Dew
Point
Rel
Hum
%
Delta-T
°C
Wind Press
QNH
hPa
Press
MSL
hPa
Rain
since 9 am
mm
Dir
 
Spd
km/h
Gust
km/h
Spd
kts
Gust
kts
20/11:30pm 13.3 10.0 8.2 71 2.5 WSW 15 19 8 10 - - 0.0
20/11:00pm 13.4 10.2 8.3 71 2.5 WSW 15 19 8 10 - - 0.0
20/10:30pm 13.6 10.7 8.2 70 2.7 WSW 13 20 7 11 - - 0.0
20/10:00pm 13.7 10.4 8.1 69 2.8 SW 15 20 8 11 - - 0.0
20/09:30pm 13.7 10.4 7.9 68 2.9 WSW 15 19 8 10 - - 0.0
20/09:00pm 13.7 10.3 7.7 67 3.0 WSW 15 17 8 9 - - 0.0
20/08:30pm 14.0 11.0 7.5 65 3.2 WSW 13 17 7 9 - - 0.0
20/08:00pm 15.7 11.0 9.4 66 3.3 S 24 30 13 16 - - 0.0
20/07:30pm 15.6 10.8 8.8 64 3.5 S 24 30 13 16 - - 0.0
20/07:00pm 15.7 10.9 8.9 64 3.5 S 24 32 13 17 - - 0.0
20/06:30pm 15.5 10.9 8.0 61 3.8 SSE 22 28 12 15 - - 0.0
20/06:00pm 15.4 10.9 8.4 63 3.5 S 22 28 12 15 - - 0.0
20/05:30pm 15.4 10.5 8.4 63 3.5 S 24 32 13 17 - - 0.0
20/05:00pm 15.5 10.1 8.0 61 3.8 S 26 33 14 18 - - 0.0
20/04:30pm 15.6 10.2 7.9 60 3.9 S 26 33 14 18 - - 0.0
20/04:00pm 15.8 10.0 7.8 59 4.0 S 28 33 15 18 - - 0.0
20/03:30pm 16.0 10.6 8.0 59 4.0 S 26 33 14 18 - - 0.0
20/03:00pm 16.1 10.5 7.1 55 4.5 S 26 32 14 17 - - 0.0
20/02:30pm 16.0 9.7 7.2 56 4.4 S 30 37 16 20 - - 0.0
20/02:00pm 16.2 10.4 7.9 58 4.2 SSE 28 39 15 21 - - 0.0
20/01:30pm 16.3 10.4 7.5 56 4.4 S 28 35 15 19 - - 0.0
20/01:00pm 16.1 10.3 8.1 59 4.0 SSE 28 39 15 21 - - 0.0
20/12:30pm 16.2 10.3 7.4 56 4.4 S 28 35 15 19 - - 0.0
20/12:00pm 16.7 12.0 9.1 61 3.9 SSE 24 32 13 17 - - 0.0
20/11:30am 16.3 11.5 7.3 55 4.5 S 22 28 12 15 - - 0.0
20/11:00am 16.0 9.8 6.2 52 4.8 S 28 33 15 18 - - 0.0
20/10:30am 15.6 9.0 7.6 59 4.0 S 32 37 17 20 - - 0.0
20/10:00am 15.3 8.4 7.1 58 4.0 S 33 41 18 22 - - 0.0
20/09:30am 15.3 8.4 7.3 59 4.0 S 33 43 18 23 - - 0.0
20/09:00am 15.3 8.5 7.6 60 3.8 S 33 39 18 21 - - 0.0
20/08:30am 15.5 11.3 8.3 62 3.6 SSW 20 24 11 13 - - 0.0
20/08:00am 14.7 10.2 6.0 56 4.2 SW 19 26 10 14 - - 0.0
20/07:30am 13.7 8.8 5.3 57 3.9 SSW 20 24 11 13 - - 0.0
20/07:00am 11.7 9.5 6.2 69 2.6 SW 7 9 4 5 - - 0.0
20/06:30am 9.3 6.6 3.9 69 2.4 WSW 7 9 4 5 - - 0.0
20/06:00am 8.4 5.3 3.5 71 2.1 SW 9 11 5 6 - - 0.0
20/05:30am 9.5 6.6 2.8 63 2.9 W 7 9 4 5 - - 0.0
20/05:00am 10.0 6.4 2.8 61 3.1 W 11 11 6 6 - - 0.0
20/04:30am 10.3 6.4 3.3 62 3.0 WSW 13 15 7 8 - - 0.0
20/04:00am 10.4 7.4 4.1 65 2.8 SW 9 11 5 6 - - 0.0
20/03:30am 10.3 7.8 4.0 65 2.8 SSW 6 9 3 5 - - 0.0
20/03:00am 11.8 8.4 3.8 58 3.6 NW 11 15 6 8 - - 0.0
20/02:30am 11.4 8.0 4.2 61 3.2 NNW 11 17 6 9 - - 0.0
20/02:00am 11.2 8.7 4.0 61 3.2 NW 6 13 3 7 - - 0.0
20/01:30am 11.1 9.3 3.2 58 3.5 W 2 11 1 6 - - 0.0
20/01:00am 11.4 7.7 4.4 62 3.2 NW 13 19 7 10 - - 0.0
20/12:30am 11.1 6.7 4.8 65 2.9 NW 17 20 9 11 - - 0.0
20/12:00am 10.4 6.6 3.9 64 2.9 WNW 13 17 7 9 - - 0.0
 
Date/Time
EST
Temp
°C
App
Temp
°C
Dew
Point
Rel
Hum
%
Delta-T
°C
Wind Press
QNH
hPa
Press
MSL
hPa
Rain
since 9 am
mm
Dir
 
Spd
km/h
Gust
km/h
Spd
kts
Gust
kts
19/11:30pm 10.3 6.8 3.6 63 2.9 WNW 11 13 6 7 - - 0.0
19/11:00pm 10.5 7.4 3.5 62 3.1 WNW 9 13 5 7 - - 0.0
19/10:30pm 10.3 6.9 4.2 66 2.7 WNW 11 13 6 7 - - 0.0
19/10:00pm 10.4 7.4 4.3 66 2.7 WNW 9 11 5 6 - - 0.0
19/09:30pm 11.2 7.8 4.0 61 3.2 W 11 13 6 7 - - 0.0
19/09:00pm 11.1 7.7 3.9 61 3.2 W 11 13 6 7 - - 0.0
19/08:30pm 11.6 7.7 3.6 58 3.5 W 13 15 7 8 - - 0.0
19/08:00pm 11.6 7.8 4.1 60 3.4 W 13 15 7 8 - - 0.0
19/07:30pm 11.9 9.1 5.1 63 3.1 W 9 11 5 6 - - 0.0
19/07:00pm 12.7 10.6 3.9 55 4.0 SW 4 9 2 5 - - 0.0
19/06:30pm 14.0 11.0 2.3 45 5.1 SE 7 11 4 6 - - 0.0
19/06:00pm 14.1 10.5 2.7 46 5.1 SE 11 15 6 8 - - 0.0
19/05:30pm 14.5 11.2 4.5 51 4.6 SE 11 17 6 9 - - 0.0
19/05:00pm 14.9 11.6 6.2 56 4.2 SE 13 20 7 11 - - 0.0
19/04:30pm 15.1 11.3 5.9 54 4.4 SE 15 19 8 10 - - 0.0
19/04:00pm 15.4 11.9 5.6 52 4.7 SE 13 17 7 9 - - 0.0
19/03:30pm 15.8 12.5 6.5 54 4.5 ESE 13 17 7 9 - - 0.0
19/03:00pm 15.7 12.4 6.2 53 4.6 SE 13 17 7 9 - - 0.0
19/02:30pm 15.9 13.0 6.3 53 4.7 ESE 11 15 6 8 - - 0.0
19/02:00pm 15.9 12.6 6.6 54 4.5 SE 13 17 7 9 - - 0.0
19/01:30pm 15.9 12.5 6.1 52 4.7 ESE 13 15 7 8 - - 0.0
19/01:00pm 16.5 13.4 7.2 54 4.6 SE 13 17 7 9 - - 0.0
19/12:30pm 16.1 12.5 4.8 47 5.3 ESE 13 15 7 8 - - 0.0
19/12:00pm 16.3 12.9 5.9 50 5.0 ESE 13 17 7 9 - - 0.0
19/11:30am 16.1 12.1 5.1 48 5.2 ESE 15 19 8 10 - - 0.0
19/11:00am 15.8 10.9 5.1 49 5.1 SE 20 24 11 13 - - 0.0
19/10:30am 15.9 11.1 4.9 48 5.2 SE 19 20 10 11 - - 0.0
19/10:00am 16.4 12.4 4.8 46 5.5 SE 15 19 8 10 - - 0.0
19/09:30am 16.6 13.1 1.1 35 6.8 W 9 17 5 9 - - 0.0
19/09:00am 15.7 12.8 2.5 41 5.9 WSW 7 11 4 6 - - 0.0
19/08:30am 14.8 10.8 3.0 45 5.3 WSW 13 19 7 10 - - 0.0
19/08:00am 14.4 11.2 5.2 54 4.3 NW 11 15 6 8 - - 0.0
19/07:30am 13.1 10.3 5.3 59 3.6 WNW 9 11 5 6 - - 0.0
19/07:00am 11.3 8.3 4.3 62 3.1 WNW 9 11 5 6 - - 0.0
19/06:30am 9.4 5.9 3.4 66 2.6 WNW 11 13 6 7 - - 0.0
19/06:00am 8.9 4.9 3.1 67 2.5 WNW 13 15 7 8 - - 0.0
19/05:30am 8.6 5.0 2.8 67 2.5 WNW 11 15 6 8 - - 0.0
19/05:00am 8.7 5.1 3.1 68 2.4 WNW 11 13 6 7 - - 0.0
19/04:30am 8.9 6.1 3.3 68 2.4 WNW 7 11 4 6 - - 0.0
19/04:00am 8.8 6.1 2.6 65 2.6 WNW 6 7 3 4 - - 0.0
19/03:30am 9.4 8.0 3.4 66 2.6 CALM 0 4 0 2 - - 0.0
19/03:00am 9.4 6.6 3.4 66 2.6 NW 7 9 4 5 - - 0.0
19/02:30am 9.9 7.7 3.6 65 2.7 NNW 4 9 2 5 - - 0.0
19/02:00am 10.5 8.3 3.1 60 3.2 WNW 4 9 2 5 - - 0.0
19/01:30am 10.6 7.6 2.2 56 3.6 W 7 11 4 6 - - 0.0
19/01:00am 10.5 6.8 2.1 56 3.6 WNW 11 13 6 7 - - 0.0
19/12:30am 11.2 7.1 2.2 54 3.8 W 13 17 7 9 - - 0.0
19/12:00am 10.5 6.8 2.1 56 3.6 W 11 17 6 9 - - 0.0
 
Date/Time
EST
Temp
°C
App
Temp
°C
Dew
Point
Rel
Hum
%
Delta-T
°C
Wind Press
QNH
hPa
Press
MSL
hPa
Rain
since 9 am
mm
Dir
 
Spd
km/h
Gust
km/h
Spd
kts
Gust
kts
18/11:30pm 10.9 6.8 2.0 54 3.8 WNW 13 17 7 9 - - 0.0
18/11:00pm 11.1 6.9 1.9 53 3.9 WNW 13 17 7 9 - - 0.0
18/10:30pm 11.2 7.1 2.0 53 3.9 WNW 13 15 7 8 - - 0.0
18/10:00pm 11.5 7.5 2.8 55 3.8 WNW 13 17 7 9 - - 0.0
18/09:30pm 11.9 7.9 2.6 53 4.0 WNW 13 17 7 9 - - 0.0
18/09:00pm 11.9 8.2 2.1 51 4.2 WNW 11 13 6 7 - - 0.0
18/08:30pm 12.3 9.0 2.2 50 4.4 WNW 9 11 5 6 - - 0.0
18/08:00pm 12.4 8.4 3.1 53 4.1 W 13 15 7 8 - - 0.0
18/07:30pm 12.2 8.6 3.2 54 4.0 W 11 13 6 7 - - 0.0
18/07:00pm 12.2 9.0 3.2 54 4.0 W 9 13 5 7 - - 0.0
18/06:30pm 13.1 9.9 3.2 51 4.4 W 9 11 5 6 - - 0.0
18/06:00pm 14.4 10.7 2.6 45 5.2 S 11 15 6 8 - - 0.0
18/05:30pm 14.8 11.5 2.7 44 5.4 S 9 15 5 8 - - 0.0
18/05:00pm 15.3 11.4 1.4 39 6.1 S 11 13 6 7 - - 0.0
18/04:30pm 15.4 11.6 3.9 46 5.3 ESE 13 17 7 9 - - 0.0
18/04:00pm 15.4 10.3 3.2 44 5.5 SE 19 22 10 12 - - 0.0
18/03:30pm 15.5 10.4 4.2 47 5.2 SE 20 24 11 13 - - 0.0
18/03:00pm 15.7 10.1 3.2 43 5.7 SE 22 24 12 13 - - 0.0
18/02:30pm 15.9 10.0 1.6 38 6.3 SSE 22 28 12 15 - - 0.0
18/02:00pm 15.9 9.1 3.0 42 5.9 SSE 28 32 15 17 - - 0.0
18/01:30pm 15.9 9.3 4.3 46 5.4 SSE 28 33 15 18 - - 0.0
18/01:00pm 16.1 9.4 3.9 44 5.6 SSE 28 35 15 19 - - 0.0
18/12:30pm 16.1 9.8 3.9 44 5.6 SSE 26 33 14 18 - - 0.0
18/12:00pm 16.6 11.0 3.6 42 6.0 SSE 22 32 12 17 - - 0.0
18/11:30am 16.6 10.4 -0.1 32 7.1 S 22 32 12 17 - - 0.0
18/11:00am 16.1 10.3 -0.2 33 6.9 S 20 24 11 13 - - 0.0
18/10:30am 16.0 10.6 1.3 37 6.4 S 19 24 10 13 - - 0.0
18/10:00am 15.8 9.8 -1.3 31 7.1 SW 20 32 11 17 - - 0.0
18/09:30am 15.6 10.9 0.6 36 6.4 SSW 15 20 8 11 - - 0.0
18/09:00am 15.2 9.5 0.6 37 6.3 SSW 20 22 11 12 - - 0.0
18/08:30am 14.5 9.3 0.0 37 6.1 WSW 17 24 9 13 - - 0.0
18/08:00am 13.6 8.0 -0.1 39 5.7 WSW 19 28 10 15 - - 0.0
18/07:30am 12.9 7.6 -0.4 40 5.5 W 17 28 9 15 - - 0.0
18/07:00am 12.2 6.9 -0.3 42 5.1 W 17 26 9 14 - - 0.0
18/06:30am 11.7 6.5 -0.1 44 4.8 W 17 26 9 14 - - 0.0
18/06:00am 11.1 6.3 0.5 48 4.4 W 15 28 8 15 - - 0.0
18/05:30am 11.6 6.4 0.4 46 4.6 W 17 22 9 12 - - 0.0
18/05:00am 11.8 6.7 0.6 46 4.6 W 17 28 9 15 - - 0.0
18/04:30am 12.4 5.9 0.2 43 5.0 WSW 24 35 13 19 - - 0.0
18/04:00am 12.7 5.4 0.1 42 5.2 WSW 28 39 15 21 - - 0.0
18/03:30am 12.7 7.0 0.8 44 5.0 WSW 20 32 11 17 - - 0.0
18/03:00am 13.0 7.0 1.0 44 5.1 WSW 22 33 12 18 - - 0.0
18/02:30am 13.1 7.5 1.5 45 5.0 WSW 20 35 11 19 - - 0.0
18/02:00am 13.5 7.2 1.5 44 5.2 WSW 24 39 13 21 - - 0.0
18/01:30am 14.0 7.7 1.6 43 5.4 WSW 24 41 13 22 - - 0.0
18/01:23am 14.1 7.0 1.1 41 5.6 WSW 28 46 15 25 - - 0.0
18/01:00am 14.3 7.9 1.2 41 5.6 WSW 24 41 13 22 - - 0.0
18/12:30am 14.4 7.1 0.3 38 6.0 SW 28 44 15 24 - - 0.0
18/12:06am 14.5 7.1 -0.4 36 6.2 SW 28 48 15 26 - - 0.0
18/12:00am 14.4 7.5 -0.1 37 6.1 WSW 26 44 14 24 - - 0.0
 
Date/Time
EST
Temp
°C
App
Temp
°C
Dew
Point
Rel
Hum
%
Delta-T
°C
Wind Press
QNH
hPa
Press
MSL
hPa
Rain
since 9 am
mm
Dir
 
Spd
km/h
Gust
km/h
Spd
kts
Gust
kts
17/11:51pm 14.5 7.3 0.7 39 5.9 WSW 28 46 15 25 - - 0.0

Other Formats:

Comma delimited format used in spreadsheet applications
http://www.bom.gov.au/fwo/IDN60801/IDN60801.94749.axf

JavaScript Object Notation format (JSON) in row-major order
http://www.bom.gov.au/fwo/IDN60801/IDN60801.94749.json